createdAt,value
2016-05-24T00:00:25.841Z,9.45
2016-05-24T00:01:26.531Z,9.47
2016-05-24T00:02:26.004Z,9.47
2016-05-24T00:03:25.990Z,9.37
2016-05-24T00:04:25.993Z,9.51
2016-05-24T00:05:26.011Z,9.45
2016-05-24T00:06:25.998Z,9.37
2016-05-24T00:07:25.984Z,9.42
2016-05-24T00:08:25.987Z,9.45
2016-05-24T00:09:25.990Z,9.4
2016-05-24T00:10:25.993Z,9.52
2016-05-24T00:11:25.980Z,9.36
2016-05-24T00:12:25.998Z,9.37
2016-05-24T00:13:25.986Z,9.37
2016-05-24T00:14:26.035Z,9.39
2016-05-24T00:15:25.991Z,9.42
2016-05-24T00:16:25.994Z,9.39
2016-05-24T00:17:25.981Z,9.36
2016-05-24T00:18:25.999Z,9.36
2016-05-24T00:19:25.986Z,9.33
2016-05-24T00:20:25.833Z,9.39
2016-05-24T00:21:25.992Z,9.42
2016-05-24T00:22:25.994Z,9.44
2016-05-24T00:23:25.997Z,9.37
2016-05-24T00:24:25.984Z,9.39
2016-05-24T00:25:26.002Z,9.39
2016-05-24T00:26:25.989Z,9.33
2016-05-24T00:27:25.836Z,9.39
2016-05-24T00:28:25.979Z,9.42
2016-05-24T00:29:25.998Z,9.4
2016-05-24T00:30:25.984Z,9.39
2016-05-24T00:31:26.004Z,9.42
2016-05-24T00:32:26.006Z,9.39
2016-05-24T00:33:25.680Z,9.42
2016-05-24T00:34:25.979Z,9.39
2016-05-24T00:35:25.826Z,9.4
2016-05-24T00:36:25.984Z,9.37
2016-05-24T00:37:26.003Z,9.31
2016-05-24T00:38:25.990Z,9.39
2016-05-24T00:39:25.993Z,9.4
2016-05-24T00:40:25.981Z,9.4
2016-05-24T00:41:25.826Z,9.44
2016-05-24T00:42:25.986Z,9.44
2016-05-24T00:43:26.003Z,9.42
2016-05-24T00:44:26.209Z,9.37
2016-05-24T00:45:25.994Z,9.3
2016-05-24T00:46:25.981Z,9.37
2016-05-24T00:47:25.983Z,9.4
2016-05-24T00:48:25.986Z,9.31
2016-05-24T00:49:25.973Z,9.42
2016-05-24T00:50:25.992Z,9.42
2016-05-24T00:51:25.994Z,9.37
2016-05-24T00:52:25.981Z,9.47
2016-05-24T00:53:25.983Z,9.45
2016-05-24T00:54:25.830Z,9.44
2016-05-24T00:55:25.989Z,9.44
2016-05-24T00:56:25.992Z,9.37
2016-05-24T00:57:25.994Z,9.45
2016-05-24T00:58:25.982Z,9.45
2016-05-24T00:59:25.687Z,9.42
2016-05-24T01:00:25.998Z,9.42
2016-05-24T01:01:26.013Z,9.48
2016-05-24T01:02:26.044Z,9.36
2016-05-24T01:03:26.076Z,9.37
2016-05-24T01:04:26.106Z,9.39
2016-05-24T01:05:26.130Z,9.31
2016-05-24T01:06:26.143Z,9.39
2016-05-24T01:07:26.155Z,9.33
2016-05-24T01:08:26.169Z,9.42
2016-05-24T01:09:26.182Z,9.31
2016-05-24T01:10:26.192Z,9.36
2016-05-24T01:11:26.167Z,9.34
2016-05-24T01:12:26.190Z,9.39
2016-05-24T01:13:26.196Z,9.3
2016-05-24T01:14:26.203Z,9.45
2016-05-24T01:15:26.193Z,9.42
2016-05-24T01:16:26.196Z,9.36
2016-05-24T01:17:26.200Z,9.42
2016-05-24T01:18:26.220Z,9.44
2016-05-24T01:19:26.066Z,9.39
2016-05-24T01:20:26.211Z,9.37
2016-05-24T01:21:26.199Z,9.31
2016-05-24T01:22:26.201Z,9.37
2016-05-24T01:23:26.205Z,9.42
2016-05-24T01:24:26.035Z,9.33
2016-05-24T01:25:26.196Z,9.39
2016-05-24T01:26:26.198Z,9.39
2016-05-24T01:27:26.202Z,9.37
2016-05-24T01:28:26.204Z,9.37
2016-05-24T01:29:26.051Z,9.34
2016-05-24T01:30:26.194Z,9.37
2016-05-24T01:31:26.198Z,9.33
2016-05-24T01:32:26.201Z,9.4
2016-05-24T01:33:26.203Z,9.36
2016-05-24T01:34:26.049Z,9.37
2016-05-24T01:35:26.192Z,9.37
2016-05-24T01:36:26.210Z,9.3
2016-05-24T01:37:26.214Z,9.39
2016-05-24T01:38:26.201Z,9.3
2016-05-24T01:39:26.203Z,9.34
2016-05-24T01:40:26.206Z,9.37
2016-05-24T01:41:26.224Z,9.44
2016-05-24T01:42:26.196Z,9.36
2016-05-24T01:43:26.042Z,9.36
2016-05-24T01:44:26.483Z,9.36
2016-05-24T01:45:26.204Z,9.34
2016-05-24T01:46:26.191Z,9.31
2016-05-24T01:47:26.209Z,9.37
2016-05-24T01:48:26.196Z,9.4
2016-05-24T01:49:25.887Z,9.34
2016-05-24T01:50:26.187Z,9.33
2016-05-24T01:51:26.204Z,9.36
2016-05-24T01:52:26.192Z,9.4
2016-05-24T01:53:26.209Z,9.37
2016-05-24T01:54:26.212Z,9.37
2016-05-24T01:55:26.215Z,9.44
2016-05-24T01:56:26.203Z,9.39
2016-05-24T01:57:26.048Z,9.44
2016-05-24T01:58:26.208Z,9.42
2016-05-24T01:59:26.086Z,9.39
2016-05-24T02:00:26.214Z,9.42
2016-05-24T02:01:26.200Z,9.42
2016-05-24T02:02:26.031Z,9.36
2016-05-24T02:03:26.205Z,9.36
2016-05-24T02:04:26.192Z,9.39
2016-05-24T02:05:26.210Z,9.42
2016-05-24T02:06:26.198Z,9.34
2016-05-24T02:07:26.201Z,9.4
2016-05-24T02:08:26.203Z,9.39
2016-05-24T02:09:26.190Z,9.4
2016-05-24T02:10:26.193Z,9.45
2016-05-24T02:11:26.196Z,9.44
2016-05-24T02:12:26.214Z,9.47
2016-05-24T02:13:26.186Z,9.4
2016-05-24T02:14:26.391Z,9.47
2016-05-24T02:15:26.191Z,9.45
2016-05-24T02:16:26.193Z,9.52
2016-05-24T02:17:26.196Z,9.51
2016-05-24T02:18:26.199Z,9.45
2016-05-24T02:19:26.201Z,9.52
2016-05-24T02:20:26.189Z,9.45
2016-05-24T02:21:26.191Z,9.36
2016-05-24T02:22:26.193Z,9.42
2016-05-24T02:23:26.196Z,9.39
2016-05-24T02:24:26.199Z,9.33
2016-05-24T02:25:26.187Z,9.4
2016-05-24T02:26:26.189Z,9.3
2016-05-24T02:27:26.192Z,9.31
2016-05-24T02:28:26.039Z,9.37
2016-05-24T02:29:26.213Z,9.4
2016-05-24T02:30:26.200Z,9.34
2016-05-24T02:31:26.047Z,9.42
2016-05-24T02:32:26.205Z,9.51
2016-05-24T02:33:26.192Z,9.45
2016-05-24T02:34:26.194Z,9.51
2016-05-24T02:35:26.183Z,9.51
2016-05-24T02:36:26.185Z,9.52
2016-05-24T02:37:26.188Z,9.44
2016-05-24T02:38:26.190Z,9.47
2016-05-24T02:39:26.193Z,9.49
2016-05-24T02:40:26.024Z,9.4
2016-05-24T02:41:26.199Z,9.42
2016-05-24T02:42:26.202Z,9.51
2016-05-24T02:43:26.188Z,9.54
2016-05-24T02:44:26.174Z,9.48
2016-05-24T02:45:26.193Z,9.48
2016-05-24T02:46:26.196Z,9.52
2016-05-24T02:47:26.183Z,9.47
2016-05-24T02:48:26.093Z,9.47
2016-05-24T02:49:26.095Z,9.49
2016-05-24T02:50:26.176Z,9.59
2016-05-24T02:51:26.193Z,9.51
2016-05-24T02:52:26.243Z,9.54
2016-05-24T02:53:26.246Z,9.56
2016-05-24T02:54:26.187Z,9.48
2016-05-24T02:55:26.189Z,9.55
2016-05-24T02:56:26.176Z,9.54
2016-05-24T02:57:26.179Z,9.45
2016-05-24T02:58:26.198Z,9.44
2016-05-24T02:59:26.325Z,9.54
2016-05-24T03:00:26.187Z,9.45
2016-05-24T03:01:26.189Z,9.47
2016-05-24T03:02:26.036Z,9.45
2016-05-24T03:03:26.023Z,9.47
2016-05-24T03:04:26.182Z,9.48
2016-05-24T03:05:26.184Z,9.48
2016-05-24T03:06:26.187Z,9.52
2016-05-24T03:07:26.190Z,9.52
2016-05-24T03:08:26.036Z,9.54
2016-05-24T03:09:26.180Z,9.56
2016-05-24T03:10:26.183Z,9.48
2016-05-24T03:11:26.185Z,9.51
2016-05-24T03:12:26.188Z,9.49
2016-05-24T03:13:26.190Z,9.54
2016-05-24T03:14:26.443Z,9.54
2016-05-24T03:15:26.180Z,9.54
2016-05-24T03:16:26.199Z,9.49
2016-05-24T03:17:26.186Z,9.44
2016-05-24T03:18:26.032Z,9.49
2016-05-24T03:19:26.190Z,9.52
2016-05-24T03:20:26.178Z,9.45
2016-05-24T03:21:26.181Z,9.54
2016-05-24T03:22:26.184Z,9.45
2016-05-24T03:23:26.030Z,9.59
2016-05-24T03:24:26.189Z,9.52
2016-05-24T03:25:26.192Z,9.54
2016-05-24T03:26:26.179Z,9.48
2016-05-24T03:27:26.181Z,9.58
2016-05-24T03:28:26.184Z,9.45
2016-05-24T03:29:26.187Z,9.45
2016-05-24T03:30:26.033Z,9.47
2016-05-24T03:31:26.176Z,9.55
2016-05-24T03:32:26.179Z,9.45
2016-05-24T03:33:26.025Z,9.39
2016-05-24T03:34:26.012Z,9.47
2016-05-24T03:35:26.187Z,9.47
2016-05-24T03:36:26.174Z,9.48
2016-05-24T03:37:26.178Z,9.48
2016-05-24T03:38:26.180Z,9.45
2016-05-24T03:39:26.183Z,9.48
2016-05-24T03:40:26.044Z,9.47
2016-05-24T03:41:26.188Z,9.54
2016-05-24T03:42:26.174Z,9.45
2016-05-24T03:43:26.178Z,9.45
2016-05-24T03:44:26.180Z,9.45
2016-05-24T03:45:26.824Z,9.49
2016-05-24T03:46:26.169Z,9.49
2016-05-24T03:47:26.172Z,9.52
2016-05-24T03:48:26.174Z,9.56
2016-05-24T03:49:26.194Z,9.51
2016-05-24T03:50:26.180Z,9.58
2016-05-24T03:51:26.183Z,9.54
2016-05-24T03:52:26.185Z,9.56
2016-05-24T03:53:26.174Z,9.56
2016-05-24T03:54:26.176Z,9.59
2016-05-24T03:55:26.023Z,9.59
2016-05-24T03:56:26.025Z,9.62
2016-05-24T03:57:26.168Z,9.52
2016-05-24T03:58:26.171Z,9.62
2016-05-24T03:59:26.173Z,9.62
2016-05-24T04:00:26.207Z,9.55
2016-05-24T04:01:26.179Z,9.59
2016-05-24T04:02:26.181Z,9.62
2016-05-24T04:03:26.184Z,9.59
2016-05-24T04:04:26.015Z,9.58
2016-05-24T04:05:26.175Z,9.52
2016-05-24T04:06:26.177Z,9.52
2016-05-24T04:07:26.023Z,9.52
2016-05-24T04:08:26.182Z,9.59
2016-05-24T04:09:26.169Z,9.54
2016-05-24T04:10:26.172Z,9.54
2016-05-24T04:11:26.175Z,9.49
2016-05-24T04:12:26.177Z,9.64
2016-05-24T04:13:26.180Z,9.54
2016-05-24T04:14:26.182Z,9.52
2016-05-24T04:15:26.029Z,9.58
2016-05-24T04:16:26.189Z,9.62
2016-05-24T04:17:25.863Z,9.52
2016-05-24T04:18:25.866Z,9.55
2016-05-24T04:19:26.008Z,9.54
2016-05-24T04:20:26.167Z,9.55
2016-05-24T04:21:26.186Z,9.58
2016-05-24T04:22:26.173Z,9.63
2016-05-24T04:23:26.160Z,9.62
2016-05-24T04:24:26.179Z,9.64
2016-05-24T04:25:26.024Z,9.64
2016-05-24T04:26:26.027Z,9.63
2016-05-24T04:27:26.170Z,9.74
2016-05-24T04:28:25.862Z,9.64
2016-05-24T04:29:26.035Z,9.77
2016-05-24T04:30:25.882Z,9.7
2016-05-24T04:31:26.165Z,9.77
2016-05-24T04:32:26.184Z,9.82
2016-05-24T04:33:26.171Z,9.74
2016-05-24T04:34:26.174Z,9.73
2016-05-24T04:35:26.176Z,9.73
2016-05-24T04:36:26.179Z,9.82
2016-05-24T04:37:26.056Z,9.8
2016-05-24T04:38:26.169Z,9.8
2016-05-24T04:39:26.172Z,9.8
2016-05-24T04:40:26.019Z,9.94
2016-05-24T04:41:26.177Z,9.87
2016-05-24T04:42:26.164Z,9.85
2016-05-24T04:43:26.166Z,9.87
2016-05-24T04:44:26.014Z,9.94
2016-05-24T04:45:26.407Z,9.95
2016-05-24T04:46:26.160Z,10.05
2016-05-24T04:47:26.177Z,10.06
2016-05-24T04:48:26.165Z,10.07
2016-05-24T04:49:26.010Z,10.05
2016-05-24T04:50:26.171Z,10.06
2016-05-24T04:51:26.174Z,10.05
2016-05-24T04:52:26.019Z,10.03
2016-05-24T04:53:26.162Z,10.1
2016-05-24T04:54:26.165Z,10.06
2016-05-24T04:55:26.168Z,9.91
2016-05-24T04:56:26.171Z,10.03
2016-05-24T04:57:26.158Z,9.97
2016-05-24T04:58:26.160Z,9.97
2016-05-24T04:59:26.178Z,9.99
2016-05-24T05:00:26.807Z,9.94
2016-05-24T05:01:25.996Z,10.02
2016-05-24T05:02:26.171Z,9.99
2016-05-24T05:03:26.159Z,9.91
2016-05-24T05:04:26.176Z,9.95
2016-05-24T05:05:26.179Z,9.9
2016-05-24T05:06:26.166Z,9.85
2016-05-24T05:07:26.153Z,9.92
2016-05-24T05:08:26.000Z,9.92
2016-05-24T05:09:26.003Z,9.97
2016-05-24T05:10:26.177Z,10
2016-05-24T05:11:26.164Z,9.97
2016-05-24T05:12:26.167Z,10.06
2016-05-24T05:13:26.170Z,10.13
2016-05-24T05:14:26.172Z,10.03
2016-05-24T05:15:26.331Z,10.15
2016-05-24T05:16:26.161Z,10.15
2016-05-24T05:17:26.180Z,10.15
2016-05-24T05:18:26.167Z,10.18
2016-05-24T05:19:26.155Z,10.31
2016-05-24T05:20:26.157Z,10.25
2016-05-24T05:21:26.050Z,10.34
2016-05-24T05:22:26.163Z,10.38
2016-05-24T05:23:26.166Z,10.33
2016-05-24T05:24:26.011Z,10.34
2016-05-24T05:25:26.171Z,10.39
2016-05-24T05:26:26.158Z,10.41
2016-05-24T05:27:26.160Z,10.34
2016-05-24T05:28:26.162Z,10.41
2016-05-24T05:29:26.009Z,10.34
2016-05-24T05:30:26.012Z,10.33
2016-05-24T05:31:26.156Z,10.42
2016-05-24T05:32:26.017Z,10.46
2016-05-24T05:33:26.162Z,10.39
2016-05-24T05:34:26.164Z,10.36
2016-05-24T05:35:26.181Z,10.43
2016-05-24T05:36:26.170Z,10.42
2016-05-24T05:37:26.156Z,10.45
2016-05-24T05:38:26.158Z,10.42
2016-05-24T05:39:25.848Z,10.38
2016-05-24T05:40:26.148Z,10.41
2016-05-24T05:41:26.167Z,10.42
2016-05-24T05:42:26.013Z,10.39
2016-05-24T05:43:26.000Z,10.39
2016-05-24T05:44:26.019Z,10.41
2016-05-24T05:45:26.349Z,10.48
2016-05-24T05:46:26.164Z,10.45
2016-05-24T05:47:26.182Z,10.38
2016-05-24T05:48:26.169Z,10.53
2016-05-24T05:49:26.001Z,10.45
2016-05-24T05:50:26.160Z,10.62
2016-05-24T05:51:26.163Z,10.48
2016-05-24T05:52:26.165Z,10.62
2016-05-24T05:53:26.027Z,10.57
2016-05-24T05:54:26.154Z,10.51
2016-05-24T05:55:26.157Z,10.51
2016-05-24T05:56:26.160Z,10.62
2016-05-24T05:57:26.163Z,10.65
2016-05-24T05:58:26.165Z,10.65
2016-05-24T05:59:26.168Z,10.59
2016-05-24T06:00:26.687Z,10.67
2016-05-24T06:01:26.017Z,10.68
2016-05-24T06:02:26.004Z,10.64
2016-05-24T06:03:26.162Z,10.67
2016-05-24T06:04:26.166Z,10.71
2016-05-24T06:05:26.012Z,10.71
2016-05-24T06:06:26.156Z,10.71
2016-05-24T06:07:26.158Z,10.76
2016-05-24T06:08:26.161Z,10.77
2016-05-24T06:09:26.163Z,10.8
2016-05-24T06:10:26.166Z,10.82
2016-05-24T06:11:26.232Z,10.89
2016-05-24T06:12:26.156Z,10.94
2016-05-24T06:13:26.002Z,11.07
2016-05-24T06:14:28.303Z,11.13
2016-05-24T06:15:26.164Z,11.22
2016-05-24T06:16:26.026Z,11.19
2016-05-24T06:17:26.638Z,11.19
2016-05-24T06:18:26.016Z,11.26
2016-05-24T06:19:26.019Z,11.3
2016-05-24T06:20:26.163Z,11.31
2016-05-24T06:21:26.165Z,11.33
2016-05-24T06:22:26.168Z,11.35
2016-05-24T06:23:26.154Z,11.55
2016-05-24T06:24:26.157Z,11.41
2016-05-24T06:25:26.160Z,11.45
2016-05-24T06:26:26.163Z,11.49
2016-05-24T06:27:26.149Z,11.51
2016-05-24T06:28:26.168Z,11.59
2016-05-24T06:29:26.155Z,11.58
2016-05-24T06:30:26.001Z,11.59
2016-05-24T06:31:26.004Z,11.49
2016-05-24T06:32:26.163Z,11.53
2016-05-24T06:33:26.166Z,11.51
2016-05-24T06:34:26.168Z,11.52
2016-05-24T06:35:26.156Z,11.59
2016-05-24T06:36:26.018Z,11.68
2016-05-24T06:37:26.161Z,11.7
2016-05-24T06:38:26.164Z,11.77
2016-05-24T06:39:26.167Z,11.85
2016-05-24T06:40:26.170Z,11.93
2016-05-24T06:41:26.000Z,11.89
2016-05-24T06:42:26.158Z,11.97
2016-05-24T06:43:26.161Z,12.02
2016-05-24T06:44:26.164Z,12.11
2016-05-24T06:45:26.323Z,12.12
2016-05-24T06:46:26.045Z,12.12
2016-05-24T06:47:26.172Z,12.1
2016-05-24T06:48:26.159Z,12.2
2016-05-24T06:49:26.162Z,12.3
2016-05-24T06:50:26.165Z,12.26
2016-05-24T06:51:26.167Z,12.36
2016-05-24T06:52:26.155Z,12.4
2016-05-24T06:53:26.188Z,12.43
2016-05-24T06:54:26.191Z,12.44
2016-05-24T06:55:26.382Z,12.43
2016-05-24T06:56:26.180Z,12.47
2016-05-24T06:57:26.230Z,12.44
2016-05-24T06:58:26.265Z,12.33
2016-05-24T06:59:26.174Z,12.32
2016-05-24T07:00:26.177Z,12.36
2016-05-24T07:01:26.007Z,12.28
2016-05-24T07:02:26.182Z,12.3
2016-05-24T07:03:26.153Z,12.32
2016-05-24T07:04:26.171Z,12.28
2016-05-24T07:05:26.159Z,12.28
2016-05-24T07:06:26.161Z,12.32
2016-05-24T07:07:26.179Z,12.29
2016-05-24T07:08:26.026Z,12.28
2016-05-24T07:09:26.170Z,12.3
2016-05-24T07:10:26.172Z,12.35
2016-05-24T07:11:26.175Z,12.36
2016-05-24T07:12:26.162Z,12.4
2016-05-24T07:13:26.181Z,12.33
2016-05-24T07:14:26.011Z,12.35
2016-05-24T07:15:26.028Z,12.45
2016-05-24T07:16:26.047Z,12.45
2016-05-24T07:17:26.159Z,12.53
2016-05-24T07:18:26.177Z,12.5
2016-05-24T07:19:26.164Z,12.58
2016-05-24T07:20:26.183Z,12.54
2016-05-24T07:21:26.217Z,12.58
2016-05-24T07:22:26.266Z,12.55
2016-05-24T07:23:26.019Z,12.66
2016-05-24T07:24:26.178Z,12.73
2016-05-24T07:25:26.244Z,12.8
2016-05-24T07:26:26.027Z,12.81
2016-05-24T07:27:26.264Z,12.87
2016-05-24T07:28:26.174Z,12.98
2016-05-24T07:29:26.176Z,13.09
2016-05-24T07:30:26.132Z,13.05
2016-05-24T07:31:26.228Z,13.13
2016-05-24T07:32:26.168Z,13.13
2016-05-24T07:33:26.171Z,13.2
2016-05-24T07:34:26.174Z,13.27
2016-05-24T07:35:26.176Z,13.23
2016-05-24T07:36:26.179Z,13.37
2016-05-24T07:37:26.198Z,13.5
2016-05-24T07:38:26.169Z,13.46
2016-05-24T07:39:26.015Z,13.55
2016-05-24T07:40:26.174Z,13.65
2016-05-24T07:41:26.020Z,13.71
2016-05-24T07:42:26.179Z,13.73
2016-05-24T07:43:26.198Z,13.82
2016-05-24T07:44:26.216Z,14.05
2016-05-24T07:45:26.048Z,14.23
2016-05-24T07:46:26.190Z,14.45
2016-05-24T07:47:26.177Z,14.71
2016-05-24T07:48:26.196Z,14.97
2016-05-24T07:49:26.183Z,15.25
2016-05-24T07:50:27.217Z,15.51
2016-05-24T07:51:26.189Z,15.78
2016-05-24T07:52:26.285Z,15.84
2016-05-24T07:53:26.194Z,16.08
2016-05-24T07:54:26.180Z,16.24
2016-05-24T07:55:27.136Z,16.32
2016-05-24T07:56:26.186Z,16.26
2016-05-24T07:57:26.189Z,16.13
2016-05-24T07:58:26.191Z,15.98
2016-05-24T07:59:26.194Z,15.96
2016-05-24T08:00:27.852Z,15.78
2016-05-24T08:01:26.199Z,15.72
2016-05-24T08:02:26.218Z,15.59
2016-05-24T08:03:26.190Z,15.32
2016-05-24T08:04:26.193Z,15.35
2016-05-24T08:05:26.570Z,15.3
2016-05-24T08:06:26.260Z,15.3
2016-05-24T08:07:26.200Z,15.08
2016-05-24T08:08:26.046Z,15.05
2016-05-24T08:09:26.002Z,15.04
2016-05-24T08:10:28.084Z,14.97
2016-05-24T08:11:26.211Z,14.99
2016-05-24T08:12:26.198Z,14.78
2016-05-24T08:13:26.201Z,14.78
2016-05-24T08:14:26.047Z,14.78
2016-05-24T08:15:28.190Z,14.77
2016-05-24T08:16:26.053Z,14.71
2016-05-24T08:17:26.212Z,14.53
2016-05-24T08:18:26.323Z,14.49
2016-05-24T08:19:26.216Z,14.44
2016-05-24T08:20:26.531Z,14.3
2016-05-24T08:21:25.973Z,14.3
2016-05-24T08:22:26.084Z,14.26
2016-05-24T08:23:26.228Z,14.22
2016-05-24T08:24:26.278Z,14.16
2016-05-24T08:25:27.202Z,14.03
2016-05-24T08:26:26.219Z,13.98
2016-05-24T08:27:26.160Z,13.94
2016-05-24T08:28:26.225Z,13.82
2016-05-24T08:29:26.228Z,13.71
2016-05-24T08:30:26.965Z,13.64
2016-05-24T08:31:26.233Z,13.65
2016-05-24T08:32:26.218Z,13.58
2016-05-24T08:33:26.236Z,13.61
2016-05-24T08:34:26.238Z,13.52
2016-05-24T08:35:26.257Z,13.55
2016-05-24T08:36:26.338Z,13.52
2016-05-24T08:37:26.232Z,13.58
2016-05-24T08:38:26.234Z,13.52
2016-05-24T08:39:26.237Z,13.54
2016-05-24T08:40:28.414Z,13.52
2016-05-24T08:41:26.226Z,13.55
2016-05-24T08:42:26.229Z,13.58
2016-05-24T08:43:26.232Z,13.58
2016-05-24T08:44:26.079Z,13.6
2016-05-24T08:45:27.271Z,13.61
2016-05-24T08:46:26.224Z,13.68
2016-05-24T08:47:26.226Z,13.73
2016-05-24T08:48:26.245Z,13.76
2016-05-24T08:49:26.247Z,13.73
2016-05-24T08:50:26.109Z,13.7
2016-05-24T08:51:26.223Z,13.62
2016-05-24T08:52:26.240Z,13.64
2016-05-24T08:53:26.242Z,13.58
2016-05-24T08:54:26.074Z,13.61
2016-05-24T08:55:27.719Z,13.61
2016-05-24T08:56:26.235Z,13.6
2016-05-24T08:57:26.239Z,13.6
2016-05-24T08:58:26.147Z,13.54
2016-05-24T08:59:26.244Z,13.57
2016-05-24T09:00:28.718Z,13.6
2016-05-24T09:01:26.093Z,13.65
2016-05-24T09:02:26.236Z,13.55
2016-05-24T09:03:26.238Z,13.55
2016-05-24T09:04:26.336Z,13.57
2016-05-24T09:05:26.369Z,13.64
2016-05-24T09:06:26.090Z,13.61
2016-05-24T09:07:26.249Z,13.65
2016-05-24T09:08:26.237Z,13.61
2016-05-24T09:09:26.177Z,13.64
2016-05-24T09:10:27.195Z,13.65
2016-05-24T09:11:26.245Z,13.61
2016-05-24T09:12:26.091Z,13.62
2016-05-24T09:13:26.251Z,13.62
2016-05-24T09:14:26.253Z,13.64
2016-05-24T09:15:27.334Z,13.79
2016-05-24T09:16:26.259Z,13.73
2016-05-24T09:17:26.261Z,13.8
2016-05-24T09:18:26.264Z,13.79
2016-05-24T09:19:26.250Z,13.83
2016-05-24T09:20:27.081Z,13.76
2016-05-24T09:21:26.256Z,13.76
2016-05-24T09:22:26.259Z,13.82
2016-05-24T09:23:26.120Z,13.82
2016-05-24T09:24:26.264Z,13.76
2016-05-24T09:25:26.986Z,13.78
2016-05-24T09:26:26.473Z,13.83
2016-05-24T09:27:26.272Z,13.83
2016-05-24T09:28:26.274Z,13.87
2016-05-24T09:29:26.262Z,13.93
2016-05-24T09:30:27.092Z,13.86
2016-05-24T09:31:26.267Z,13.94
2016-05-24T09:32:26.270Z,13.94
2016-05-24T09:33:26.288Z,14.05
2016-05-24T09:34:26.119Z,14.12
2016-05-24T09:35:26.106Z,14.08
2016-05-24T09:36:26.280Z,14.16
2016-05-24T09:37:26.110Z,14.16
2016-05-24T09:38:26.286Z,14.12
2016-05-24T09:39:26.273Z,13.97
2016-05-24T09:40:26.135Z,13.91
2016-05-24T09:41:26.279Z,13.89
2016-05-24T09:42:26.281Z,13.85
2016-05-24T09:43:26.268Z,13.78
2016-05-24T09:44:26.380Z,13.94
2016-05-24T09:45:37.167Z,14
2016-05-24T09:46:26.698Z,13.97
2016-05-24T09:47:25.966Z,14
2016-05-24T09:48:26.126Z,14.11
2016-05-24T09:49:26.129Z,14.07
2016-05-24T09:50:26.130Z,14.12
2016-05-24T09:51:26.274Z,14.08
2016-05-24T09:52:26.276Z,14.22
2016-05-24T09:53:26.373Z,14.19
2016-05-24T09:54:26.298Z,14.18
2016-05-24T09:55:31.194Z,14.15
2016-05-24T09:56:26.366Z,14.18
2016-05-24T09:57:26.181Z,14.11
2016-05-24T09:58:26.292Z,14.11
2016-05-24T09:59:26.311Z,14.13
2016-05-24T10:00:27.486Z,14.18
2016-05-24T10:01:26.301Z,14.23
2016-05-24T10:02:26.194Z,14.15
2016-05-24T10:03:26.150Z,14.13
2016-05-24T10:04:26.403Z,14.22
2016-05-24T10:05:26.155Z,14.25
2016-05-24T10:06:26.142Z,14.19
2016-05-24T10:07:26.159Z,14.3
2016-05-24T10:08:26.340Z,14.25
2016-05-24T10:09:26.348Z,14.38
2016-05-24T10:10:26.311Z,14.34
2016-05-24T10:11:26.398Z,14.43
2016-05-24T10:12:26.413Z,14.53
2016-05-24T10:13:26.424Z,14.77
2016-05-24T10:14:26.498Z,14.92
2016-05-24T10:15:26.305Z,15.08
2016-05-24T10:16:26.301Z,15.29
2016-05-24T10:17:26.370Z,15.45
2016-05-24T10:18:26.486Z,15.62
2016-05-24T10:19:26.303Z,15.72
2016-05-24T10:20:27.215Z,15.85
2016-05-24T10:21:26.471Z,15.96
2016-05-24T10:22:26.490Z,16
2016-05-24T10:23:26.479Z,16.06
2016-05-24T10:24:26.483Z,16.21
2016-05-24T10:25:26.329Z,16.32
2016-05-24T10:26:26.474Z,16.5
2016-05-24T10:27:26.712Z,16.5
2016-05-24T10:28:26.481Z,16.65
2016-05-24T10:29:26.484Z,16.73
2016-05-24T10:30:27.893Z,16.76
2016-05-24T10:31:26.490Z,16.84
2016-05-24T10:32:27.071Z,16.87
2016-05-24T10:33:26.512Z,17.02
2016-05-24T10:34:26.404Z,17.1
2016-05-24T10:35:26.626Z,17.31
2016-05-24T10:36:26.503Z,17.31
2016-05-24T10:37:28.412Z,17.38
2016-05-24T10:38:26.571Z,17.44
2016-05-24T10:39:26.512Z,17.68
2016-05-24T10:40:26.373Z,17.84
2016-05-24T10:41:26.517Z,17.86
2016-05-24T10:42:28.473Z,17.98
2016-05-24T10:43:26.569Z,18.03
2016-05-24T10:44:26.509Z,18.12
2016-05-24T10:45:27.294Z,18.21
2016-05-24T10:46:26.514Z,18.43
2016-05-24T10:47:28.908Z,18.45
2016-05-24T10:48:26.505Z,18.52
2016-05-24T10:49:26.351Z,18.63
2016-05-24T10:50:26.447Z,18.79
2016-05-24T10:51:26.528Z,18.94
2016-05-24T10:52:28.219Z,19.16
2016-05-24T10:53:26.533Z,19.32
2016-05-24T10:54:26.521Z,19.42
2016-05-24T10:55:26.554Z,19.48
2016-05-24T10:56:26.385Z,19.49
2016-05-24T10:57:29.076Z,19.55
2016-05-24T10:58:26.532Z,19.62
2016-05-24T10:59:26.409Z,19.56
2016-05-24T11:00:26.584Z,19.7
2016-05-24T11:01:26.554Z,19.81
2016-05-24T11:02:30.027Z,19.93
2016-05-24T11:03:26.388Z,19.94
2016-05-24T11:04:26.548Z,19.94
2016-05-24T11:05:26.582Z,19.97
2016-05-24T11:06:26.412Z,20
2016-05-24T11:07:27.649Z,20
2016-05-24T11:08:26.559Z,20.02
2016-05-24T11:09:26.561Z,19.92
2016-05-24T11:10:26.407Z,19.79
2016-05-24T11:11:26.567Z,19.63
2016-05-24T11:12:27.600Z,19.56
2016-05-24T11:13:26.556Z,19.48
2016-05-24T11:14:26.621Z,19.41
2016-05-24T11:15:26.562Z,19.35
2016-05-24T11:16:26.423Z,19.27
2016-05-24T11:17:26.972Z,19.11
2016-05-24T11:18:26.570Z,19.09
2016-05-24T11:19:26.416Z,18.97
2016-05-24T11:20:26.419Z,19.04
2016-05-24T11:21:26.625Z,19.01
2016-05-24T11:22:27.721Z,19.05
2016-05-24T11:23:26.599Z,18.92
2016-05-24T11:24:26.586Z,18.86
2016-05-24T11:25:26.604Z,18.85
2016-05-24T11:26:26.435Z,18.91
2016-05-24T11:27:26.594Z,18.97
2016-05-24T11:28:26.424Z,19.07
2016-05-24T11:29:26.599Z,19.09
2016-05-24T11:30:26.446Z,19.15
2016-05-24T11:31:26.605Z,19.19
2016-05-24T11:32:26.701Z,19.17
2016-05-24T11:33:26.610Z,19.3
2016-05-24T11:34:26.613Z,19.32
2016-05-24T11:35:26.460Z,19.39
2016-05-24T11:36:26.618Z,19.45
2016-05-24T11:37:26.604Z,19.66
2016-05-24T11:38:26.451Z,19.77
2016-05-24T11:39:26.454Z,19.85
2016-05-24T11:40:26.613Z,19.97
2016-05-24T11:41:26.647Z,20.07
2016-05-24T11:42:26.712Z,20.21
2016-05-24T11:43:26.621Z,20.3
2016-05-24T11:44:26.623Z,20.48
2016-05-24T11:45:26.673Z,20.42
2016-05-24T11:46:26.644Z,20.49
2016-05-24T11:47:26.647Z,20.46
2016-05-24T11:48:26.634Z,20.32
2016-05-24T11:49:26.653Z,20.22
2016-05-24T11:50:26.640Z,20.12
2016-05-24T11:51:26.643Z,19.94
2016-05-24T11:52:26.644Z,19.92
2016-05-24T11:53:26.648Z,19.85
2016-05-24T11:54:26.667Z,19.81
2016-05-24T11:55:26.669Z,19.79
2016-05-24T11:56:26.578Z,19.77
2016-05-24T11:57:26.658Z,19.81
2016-05-24T11:58:26.599Z,19.82
2016-05-24T11:59:26.493Z,19.7
2016-05-24T12:00:26.573Z,19.56
2016-05-24T12:01:26.654Z,19.44
2016-05-24T12:02:26.516Z,19.29
2016-05-24T12:03:26.753Z,19.29
2016-05-24T12:04:26.677Z,19.17
2016-05-24T12:05:26.680Z,18.98
2016-05-24T12:06:26.683Z,18.96
2016-05-24T12:07:26.529Z,18.82
2016-05-24T12:08:26.532Z,18.82
2016-05-24T12:09:26.535Z,18.73
2016-05-24T12:10:26.710Z,18.7
2016-05-24T12:11:26.540Z,18.6
2016-05-24T12:12:26.699Z,18.51
2016-05-24T12:13:26.701Z,18.42
2016-05-24T12:14:26.751Z,18.26
2016-05-24T12:15:27.395Z,18.21
2016-05-24T12:16:26.709Z,18.18
2016-05-24T12:17:26.541Z,18.18
2016-05-24T12:18:26.715Z,18.15
2016-05-24T12:19:26.718Z,18.05
2016-05-24T12:20:26.736Z,18.02
2016-05-24T12:21:26.738Z,17.91
2016-05-24T12:22:26.570Z,17.95
2016-05-24T12:23:26.807Z,17.95
2016-05-24T12:24:26.731Z,17.95
2016-05-24T12:25:26.905Z,17.94
2016-05-24T12:26:26.784Z,17.91
2016-05-24T12:27:26.614Z,18.02
2016-05-24T12:28:26.835Z,18.09
2016-05-24T12:29:26.823Z,18.09
2016-05-24T12:30:27.060Z,18.21
2016-05-24T12:31:26.735Z,18.28
2016-05-24T12:32:26.753Z,18.37
2016-05-24T12:33:26.740Z,18.41
2016-05-24T12:34:26.758Z,18.46
2016-05-24T12:35:26.605Z,18.46
2016-05-24T12:36:26.749Z,18.64
2016-05-24T12:37:26.813Z,18.63
2016-05-24T12:38:26.613Z,18.66
2016-05-24T12:39:26.600Z,18.74
2016-05-24T12:40:26.618Z,18.78
2016-05-24T12:41:26.856Z,18.91
2016-05-24T12:42:26.764Z,18.97
2016-05-24T12:43:26.767Z,19.11
2016-05-24T12:44:26.769Z,19.07
2016-05-24T12:45:26.787Z,19.12
2016-05-24T12:46:26.620Z,19.17
2016-05-24T12:47:26.872Z,19.2
2016-05-24T12:48:26.483Z,19.16
2016-05-24T12:49:26.783Z,19.11
2016-05-24T12:50:26.864Z,19.07
2016-05-24T12:51:26.789Z,18.97
2016-05-24T12:52:26.792Z,18.92
2016-05-24T12:53:26.778Z,18.88
2016-05-24T12:54:26.797Z,18.94
2016-05-24T12:55:26.800Z,18.98
2016-05-24T12:56:26.802Z,19.01
2016-05-24T12:57:26.820Z,19.05
2016-05-24T12:58:26.838Z,19.04
2016-05-24T12:59:26.810Z,19.08
2016-05-24T13:00:27.782Z,19.05
2016-05-24T13:01:26.815Z,19.01
2016-05-24T13:02:26.818Z,19
2016-05-24T13:03:26.649Z,19
2016-05-24T13:04:26.667Z,19.05
2016-05-24T13:05:26.810Z,19.04